createdAt,value
2018-02-08T00:01:46.389Z,44.97
2018-02-08T00:04:13.926Z,66.83
2018-02-08T00:06:41.661Z,51.07
2018-02-08T00:09:10.139Z,67.37
2018-02-08T00:11:38.435Z,53.47
2018-02-08T00:14:06.233Z,53.80
2018-02-08T00:16:33.934Z,67.17
2018-02-08T00:19:02.423Z,55.70
2018-02-08T00:21:30.765Z,68.40
2018-02-08T00:23:58.474Z,60.63
2018-02-08T00:26:26.781Z,59.70
2018-02-08T00:28:54.499Z,46.90
2018-02-08T00:31:23.141Z,61.23
2018-02-08T00:33:50.717Z,52.70
2018-02-08T00:36:18.567Z,48.77
2018-02-08T00:38:46.274Z,57.47
2018-02-08T00:41:14.812Z,49.87
2018-02-08T00:43:42.576Z,43.67
2018-02-08T00:46:10.102Z,45.83
2018-02-08T00:48:37.797Z,47.60
2018-02-08T00:51:05.366Z,51.83
2018-02-08T00:53:33.062Z,48.67
2018-02-08T00:56:01.542Z,47.73
2018-02-08T00:58:29.262Z,59.40
2018-02-08T01:00:57.027Z,48.47
2018-02-08T01:03:24.736Z,47.43
2018-02-08T01:05:53.272Z,61.17
2018-02-08T01:08:20.977Z,48.00
2018-02-08T01:10:49.414Z,51.03
2018-02-08T01:13:17.122Z,50.80
2018-02-08T01:15:45.458Z,45.70
2018-02-08T01:18:13.321Z,46.40
2018-02-08T01:20:40.942Z,45.97
2018-02-08T01:23:08.747Z,44.63
2018-02-08T01:25:36.450Z,54.40
2018-02-08T01:28:04.889Z,47.07
2018-02-08T01:30:32.858Z,46.80
2018-02-08T01:33:00.566Z,55.20
2018-02-08T01:35:29.308Z,48.00
2018-02-08T01:37:56.873Z,53.80
2018-02-08T01:40:24.529Z,46.20
2018-02-08T01:42:52.233Z,51.70
2018-02-08T01:45:20.719Z,46.97
2018-02-08T01:47:49.062Z,50.23
2018-02-08T01:50:17.019Z,49.80
2018-02-08T01:52:44.681Z,51.60
2018-02-08T01:55:12.444Z,52.17
2018-02-08T01:57:40.208Z,52.20
2018-02-08T02:00:07.914Z,44.43
2018-02-08T02:02:36.454Z,46.60
2018-02-08T02:05:04.118Z,47.07
2018-02-08T02:07:31.818Z,52.07
2018-02-08T02:10:00.464Z,49.70
2018-02-08T02:12:28.125Z,50.07
2018-02-08T02:14:55.730Z,50.53
2018-02-08T02:17:24.085Z,56.57
2018-02-08T02:19:51.928Z,50.57
2018-02-08T02:22:19.795Z,54.63
2018-02-08T02:24:47.498Z,43.20
2018-02-08T02:27:16.144Z,50.00
2018-02-08T02:29:43.804Z,49.40
2018-02-08T02:32:11.510Z,47.10
2018-02-08T02:34:39.806Z,49.73
2018-02-08T02:37:07.371Z,57.57
2018-02-08T02:39:35.167Z,49.83
2018-02-08T02:42:02.734Z,49.90
2018-02-08T02:44:30.491Z,47.57
2018-02-08T02:46:58.155Z,53.30
2018-02-08T02:49:25.781Z,49.83
2018-02-08T02:51:53.410Z,51.60
2018-02-08T02:54:21.957Z,44.87
2018-02-08T02:56:49.926Z,49.03
2018-02-08T02:59:17.464Z,51.03
2018-02-08T03:01:44.986Z,57.60
2018-02-08T03:04:13.470Z,45.43
2018-02-08T03:06:41.904Z,49.57
2018-02-08T03:09:10.278Z,50.10
2018-02-08T03:11:37.947Z,56.40
2018-02-08T03:14:05.913Z,55.33
2018-02-08T03:16:33.622Z,52.53
2018-02-08T03:19:01.938Z,49.63
2018-02-08T03:21:29.653Z,59.67
2018-02-08T03:23:58.198Z,49.07
2018-02-08T03:26:26.064Z,50.90
2018-02-08T03:28:57.722Z,50.17
2018-02-08T03:31:25.294Z,53.00
2018-02-08T03:33:52.809Z,60.53
2018-02-08T03:36:20.602Z,52.03
2018-02-08T03:38:48.366Z,53.67
2018-02-08T03:41:16.048Z,51.03
2018-02-08T03:43:43.689Z,48.57
2018-02-08T03:46:11.453Z,54.80
2018-02-08T03:48:38.986Z,52.20
2018-02-08T03:51:06.506Z,47.77
2018-02-08T03:53:34.234Z,51.03
2018-02-08T03:56:01.938Z,51.60
2018-02-08T03:58:30.221Z,58.80
2018-02-08T04:00:58.653Z,53.67
2018-02-08T04:03:26.270Z,52.50
2018-02-08T04:05:54.734Z,55.27
2018-02-08T04:08:23.142Z,54.07
2018-02-08T04:10:50.836Z,49.33
2018-02-08T04:13:18.541Z,53.50
2018-02-08T04:15:47.026Z,51.53
2018-02-08T04:18:15.366Z,55.20
2018-02-08T04:20:43.041Z,55.83
2018-02-08T04:23:10.722Z,62.57
2018-02-08T04:25:39.202Z,55.77
2018-02-08T04:28:07.642Z,52.40
2018-02-08T04:30:35.347Z,49.90
2018-02-08T04:33:03.826Z,48.90
2018-02-08T04:35:31.548Z,49.97
2018-02-08T04:37:59.312Z,53.43
2018-02-08T04:40:39.159Z,54.17
2018-02-08T04:43:18.706Z,50.40
2018-02-08T04:45:58.438Z,56.20
2018-02-08T04:48:26.208Z,56.00
2018-02-08T04:50:53.973Z,52.60
2018-02-08T04:53:21.713Z,52.40
2018-02-08T04:55:49.500Z,53.67
2018-02-08T04:58:17.265Z,49.23
2018-02-08T05:00:44.970Z,50.80
2018-02-08T05:03:13.408Z,53.63
2018-02-08T05:05:41.172Z,55.83
2018-02-08T05:08:08.935Z,68.90
2018-02-08T05:10:36.598Z,48.10
2018-02-08T05:13:04.221Z,54.47
2018-02-08T05:15:31.854Z,58.80
2018-02-08T05:17:59.426Z,57.47
2018-02-08T05:20:27.858Z,59.00
2018-02-08T05:22:55.386Z,53.30
2018-02-08T05:25:23.182Z,51.70
2018-02-08T05:27:50.802Z,60.20
2018-02-08T05:30:19.222Z,48.00
2018-02-08T05:32:46.884Z,59.67
2018-02-08T05:35:14.469Z,57.27
2018-02-08T05:37:43.028Z,58.97
2018-02-08T05:40:10.791Z,58.47
2018-02-08T05:42:38.321Z,62.10
2018-02-08T05:45:05.966Z,63.47
2018-02-08T05:47:34.254Z,49.00
2018-02-08T05:50:02.165Z,54.40
2018-02-08T05:52:29.697Z,52.03
2018-02-08T05:54:57.376Z,59.47
2018-02-08T05:57:25.142Z,52.50
2018-02-08T05:59:52.729Z,55.43
2018-02-08T06:02:20.565Z,56.53
2018-02-08T06:04:48.270Z,55.97
2018-02-08T06:07:16.810Z,55.20
2018-02-08T06:09:44.334Z,53.50
2018-02-08T06:12:12.133Z,54.30
2018-02-08T06:14:39.838Z,54.23
2018-02-08T06:17:08.278Z,55.87
2018-02-08T06:19:35.986Z,62.97
2018-02-08T06:22:04.285Z,52.93
2018-02-08T06:24:32.022Z,55.93
2018-02-08T06:27:00.459Z,60.23
2018-02-08T06:29:28.166Z,54.13
2018-02-08T06:31:56.601Z,56.33
2018-02-08T06:34:24.467Z,53.17
2018-02-08T06:36:52.002Z,61.33
2018-02-08T06:39:19.790Z,54.07
2018-02-08T06:41:47.369Z,58.23
2018-02-08T06:44:14.934Z,59.80
2018-02-08T06:46:42.676Z,58.50
2018-02-08T06:49:10.439Z,51.80
2018-02-08T06:51:37.969Z,59.63
2018-02-08T06:54:05.510Z,52.87
2018-02-08T06:56:33.935Z,60.20
2018-02-08T06:59:01.639Z,59.03
2018-02-08T07:01:30.126Z,49.17
2018-02-08T07:03:59.172Z,59.47
2018-02-08T07:06:26.718Z,59.77
2018-02-08T07:08:54.307Z,52.13
2018-02-08T07:11:21.909Z,54.60
2018-02-08T07:13:50.433Z,55.20
2018-02-08T07:16:18.139Z,54.40
2018-02-08T07:18:46.562Z,55.83
2018-02-08T07:21:14.098Z,59.27
2018-02-08T07:23:41.850Z,64.87
2018-02-08T07:26:10.278Z,57.40
2018-02-08T07:28:37.986Z,57.13
2018-02-08T07:31:06.313Z,60.27
2018-02-08T07:33:34.082Z,52.83
2018-02-08T07:36:01.650Z,61.17
2018-02-08T07:38:29.406Z,65.03
2018-02-08T07:40:57.118Z,56.90
2018-02-08T07:43:25.462Z,59.67
2018-02-08T07:45:53.029Z,62.40
2018-02-08T07:48:20.706Z,62.37
2018-02-08T07:50:48.269Z,56.20
2018-02-08T07:53:16.546Z,56.77
2018-02-08T07:55:44.885Z,60.83
2018-02-08T07:58:12.542Z,58.60
2018-02-08T08:00:40.349Z,64.63
2018-02-08T08:03:08.784Z,58.47
2018-02-08T08:05:36.322Z,57.37
2018-02-08T08:08:04.049Z,56.00
2018-02-08T08:10:31.771Z,61.07
2018-02-08T08:12:59.298Z,55.27
2018-02-08T08:15:26.930Z,48.60
2018-02-08T08:17:55.282Z,62.43
2018-02-08T08:20:22.978Z,62.57
2018-02-08T08:22:51.453Z,54.50
2018-02-08T08:25:19.995Z,62.30
2018-02-08T08:27:47.518Z,60.23
2018-02-08T08:30:15.421Z,60.97
2018-02-08T08:32:43.288Z,63.37
2018-02-08T08:35:10.823Z,65.23
2018-02-08T08:37:38.610Z,64.37
2018-02-08T08:40:06.272Z,56.10
2018-02-08T08:42:34.086Z,64.80
2018-02-08T08:45:02.617Z,60.77
2018-02-08T08:47:30.118Z,62.90
2018-02-08T08:49:58.045Z,63.63
2018-02-08T08:52:25.809Z,64.77
2018-02-08T08:54:53.334Z,64.00
2018-02-08T08:57:20.917Z,62.00
2018-02-08T08:59:48.633Z,54.93
2018-02-08T09:02:17.072Z,54.97
2018-02-08T09:04:44.742Z,69.40
2018-02-08T09:07:12.394Z,97.00
2018-02-08T09:09:40.102Z,88.80
2018-02-08T09:12:08.578Z,64.20
2018-02-08T09:14:36.302Z,67.27
2018-02-08T09:17:04.006Z,65.93
2018-02-08T09:19:32.489Z,69.90
2018-02-08T09:22:00.770Z,81.60
2018-02-08T09:24:29.246Z,71.17
2018-02-08T09:26:57.783Z,65.40
2018-02-08T09:29:25.445Z,74.00
2018-02-08T09:31:53.222Z,65.90
2018-02-08T09:34:20.762Z,56.53
2018-02-08T09:36:48.478Z,75.67
2018-02-08T09:39:16.954Z,67.77
2018-02-08T09:41:45.242Z,71.07
2018-02-08T09:44:13.668Z,63.83
2018-02-08T09:46:41.536Z,65.13
2018-02-08T09:49:09.346Z,69.63
2018-02-08T09:51:37.825Z,72.80
2018-02-08T09:54:06.126Z,70.37
2018-02-08T09:56:34.585Z,71.23
2018-02-08T09:59:03.222Z,73.33
2018-02-08T10:01:30.884Z,80.60
2018-02-08T10:03:58.386Z,67.77
2018-02-08T10:06:26.923Z,63.63
2018-02-08T10:08:54.892Z,67.70
2018-02-08T10:11:22.861Z,68.73
2018-02-08T10:13:50.729Z,70.93
2018-02-08T10:16:18.270Z,66.43
2018-02-08T10:18:45.991Z,74.97
2018-02-08T10:21:14.278Z,82.53
2018-02-08T10:23:41.930Z,80.67
2018-02-08T10:26:10.414Z,66.33
2018-02-08T10:28:38.894Z,68.90
2018-02-08T10:31:07.431Z,71.27
2018-02-08T10:33:35.196Z,69.33
2018-02-08T10:36:02.848Z,66.50
2018-02-08T10:38:30.446Z,140.00
2018-02-08T10:40:58.180Z,145.10
2018-02-08T10:43:25.945Z,116.97
2018-02-08T10:45:53.535Z,101.90
2018-02-08T10:48:21.206Z,87.30
2018-02-08T10:50:49.691Z,70.47
2018-02-08T10:53:17.974Z,69.27
2018-02-08T10:55:46.441Z,69.27
2018-02-08T10:58:14.269Z,75.30
2018-02-08T11:00:41.810Z,73.37
2018-02-08T11:03:10.208Z,68.83
2018-02-08T11:05:37.869Z,66.20
2018-02-08T11:08:05.578Z,71.97
2018-02-08T11:10:34.018Z,73.13
2018-02-08T11:13:01.562Z,73.13
2018-02-08T11:15:29.278Z,68.70
2018-02-08T11:17:57.818Z,70.93
2018-02-08T11:20:25.518Z,68.50
2018-02-08T11:22:54.061Z,70.33
2018-02-08T11:25:21.723Z,63.50
2018-02-08T11:27:49.486Z,68.27
2018-02-08T11:30:17.114Z,71.23
2018-02-08T11:32:44.742Z,61.53
2018-02-08T11:35:12.334Z,71.17
2018-02-08T11:37:40.133Z,65.57
2018-02-08T11:40:07.999Z,64.53
2018-02-08T11:42:35.661Z,67.83
2018-02-08T11:45:03.215Z,68.87
2018-02-08T11:47:30.733Z,65.97
2018-02-08T11:49:59.202Z,73.47
2018-02-08T11:52:27.741Z,70.07
2018-02-08T11:54:55.295Z,74.53
2018-02-08T11:57:22.858Z,66.10
2018-02-08T11:59:50.726Z,80.07
2018-02-08T12:02:18.389Z,62.37
2018-02-08T12:04:46.101Z,71.20
2018-02-08T12:07:14.532Z,77.10
2018-02-08T12:09:42.125Z,80.60
2018-02-08T12:12:09.962Z,76.57
2018-02-08T12:14:37.723Z,75.27
2018-02-08T12:17:05.432Z,85.73
2018-02-08T12:19:33.864Z,88.83
2018-02-08T12:22:01.396Z,94.97
2018-02-08T12:24:29.187Z,94.60
2018-02-08T12:26:57.053Z,97.07
2018-02-08T12:29:24.579Z,93.30
2018-02-08T12:31:52.133Z,92.43
2018-02-08T12:34:19.936Z,101.47
2018-02-08T12:36:47.585Z,77.93
2018-02-08T12:39:15.258Z,80.40
2018-02-08T12:41:42.961Z,78.23
2018-02-08T12:44:10.991Z,80.00
2018-02-08T12:46:38.558Z,70.77
2018-02-08T12:49:06.315Z,87.30
2018-02-08T12:51:34.026Z,93.90
2018-02-08T12:54:02.505Z,76.60
2018-02-08T12:56:30.908Z,83.03
2018-02-08T12:58:58.638Z,73.90
2018-02-08T13:01:26.306Z,73.40
2018-02-08T13:03:54.743Z,91.60
2018-02-08T13:06:23.223Z,76.43
2018-02-08T13:08:51.006Z,76.30
2018-02-08T13:11:18.858Z,74.57
2018-02-08T13:13:46.421Z,72.40
2018-02-08T13:16:14.075Z,77.20
2018-02-08T13:18:41.778Z,66.80
2018-02-08T13:21:09.506Z,82.23
2018-02-08T13:23:37.995Z,71.20
2018-02-08T13:26:05.515Z,65.87
2018-02-08T13:28:33.033Z,68.33
2018-02-08T13:31:00.702Z,86.23
2018-02-08T13:33:29.221Z,72.43
2018-02-08T13:35:56.945Z,72.03
2018-02-08T13:38:24.646Z,80.77
2018-02-08T13:40:52.330Z,73.43
2018-02-08T13:43:20.141Z,68.07
2018-02-08T13:45:48.677Z,69.33
2018-02-08T13:48:32.154Z,72.40
2018-02-08T13:51:06.529Z,86.40
2018-02-08T13:56:43.986Z,77.67
2018-02-08T13:59:17.922Z,65.00
2018-02-08T14:01:52.060Z,68.37
2018-02-08T14:04:19.686Z,65.93
2018-02-08T14:06:47.318Z,76.43
2018-02-08T14:09:14.817Z,71.73
2018-02-08T14:11:42.606Z,79.80
2018-02-08T14:14:10.370Z,78.30
2018-02-08T14:16:37.983Z,73.20
2018-02-08T14:19:06.411Z,70.67
2018-02-08T14:21:33.950Z,70.87
2018-02-08T14:24:01.678Z,76.63
2018-02-08T14:26:30.215Z,69.40
2018-02-08T14:28:57.768Z,77.03
2018-02-08T14:31:25.345Z,76.93
2018-02-08T14:33:53.246Z,79.10
2018-02-08T14:36:21.690Z,69.63
2018-02-08T14:38:49.343Z,69.60
2018-02-08T14:41:17.004Z,72.73
2018-02-08T14:43:44.713Z,71.83
2018-02-08T14:46:13.190Z,75.20
2018-02-08T14:48:41.729Z,73.80
2018-02-08T14:51:09.438Z,89.90
2018-02-08T14:53:37.914Z,82.10
2018-02-08T14:56:06.398Z,83.13
2018-02-08T14:58:34.834Z,79.37
2018-02-08T15:01:02.544Z,84.47
2018-02-08T15:03:31.022Z,83.83
2018-02-08T15:05:59.506Z,70.40
2018-02-08T15:08:28.041Z,75.10
2018-02-08T15:10:55.617Z,79.83
2018-02-08T15:13:23.135Z,73.13
2018-02-08T15:15:50.666Z,80.60
2018-02-08T15:18:18.942Z,78.73
2018-02-08T15:20:47.373Z,77.10
2018-02-08T15:23:15.245Z,76.37
2018-02-08T15:25:42.902Z,69.50
2018-02-08T15:28:10.480Z,80.00
2018-02-08T15:30:38.278Z,73.97
2018-02-08T15:33:06.091Z,85.80
2018-02-08T15:35:33.854Z,80.80
2018-02-08T15:38:01.518Z,72.00
2018-02-08T15:40:29.070Z,75.77
2018-02-08T15:42:56.840Z,90.93
2018-02-08T15:45:24.369Z,82.07
2018-02-08T15:47:52.061Z,84.67
2018-02-08T15:50:19.825Z,82.63
2018-02-08T15:52:47.487Z,76.07
2018-02-08T15:55:15.046Z,74.23
2018-02-08T15:57:42.754Z,67.90
2018-02-08T16:00:11.189Z,66.97
2018-02-08T16:02:38.722Z,80.17
2018-02-08T16:05:06.511Z,80.13
2018-02-08T16:07:34.276Z,91.70
2018-02-08T16:10:01.986Z,94.20
2018-02-08T16:12:31.282Z,78.30
2018-02-08T16:14:59.727Z,80.23
2018-02-08T16:17:27.384Z,74.17
2018-02-08T16:19:55.144Z,78.00
2018-02-08T16:22:22.690Z,72.50
2018-02-08T16:24:50.672Z,75.80
2018-02-08T16:27:18.436Z,80.80
2018-02-08T16:29:45.990Z,78.63
2018-02-08T16:32:13.706Z,79.83
2018-02-08T16:34:42.139Z,71.70
2018-02-08T16:37:09.754Z,75.30
2018-02-08T16:39:38.281Z,81.63
2018-02-08T16:42:05.813Z,76.63
2018-02-08T16:44:33.368Z,77.73
2018-02-08T16:47:01.163Z,82.23
2018-02-08T16:49:28.825Z,73.33
2018-02-08T16:51:56.529Z,84.40
2018-02-08T16:54:24.194Z,84.17
2018-02-08T16:56:52.732Z,79.70
2018-02-08T16:59:20.496Z,83.43
2018-02-08T17:01:48.157Z,78.30
2018-02-08T17:04:15.730Z,87.30
2018-02-08T17:06:43.379Z,79.83
2018-02-08T17:09:11.245Z,80.43
2018-02-08T17:11:38.954Z,78.03
2018-02-08T17:14:07.430Z,86.90
2018-02-08T17:16:35.356Z,86.97
2018-02-08T17:19:02.926Z,76.80
2018-02-08T17:21:30.676Z,76.97
2018-02-08T17:23:59.106Z,75.30
2018-02-08T17:26:27.540Z,81.73
2018-02-08T17:28:55.406Z,82.33
2018-02-08T17:31:23.110Z,80.13
2018-02-08T17:33:51.554Z,89.13
2018-02-08T17:36:19.254Z,94.13
2018-02-08T17:38:47.710Z,77.83
2018-02-08T17:41:15.557Z,84.50
2018-02-08T17:43:43.218Z,84.43
2018-02-08T17:46:10.926Z,97.33
2018-02-08T17:48:39.314Z,76.93
2018-02-08T17:51:07.601Z,88.33
2018-02-08T17:53:35.418Z,80.23
2018-02-08T17:56:03.063Z,84.10
2018-02-08T17:58:30.725Z,85.13
2018-02-08T18:00:58.426Z,83.33
2018-02-08T18:03:26.745Z,83.87
2018-02-08T18:05:54.474Z,82.27
2018-02-08T18:08:22.908Z,94.70
2018-02-08T18:10:50.430Z,87.87
2018-02-08T18:13:18.129Z,92.50
2018-02-08T18:15:45.790Z,86.40
2018-02-08T18:18:13.318Z,92.17
2018-02-08T18:20:41.146Z,84.33
2018-02-08T18:23:08.673Z,83.93
2018-02-08T18:25:36.295Z,80.07
2018-02-08T18:28:03.914Z,74.37
2018-02-08T18:30:31.598Z,77.37
2018-02-08T18:33:00.082Z,81.27
2018-02-08T18:35:28.558Z,89.90
2018-02-08T18:37:57.046Z,85.60
2018-02-08T18:40:25.479Z,78.73
2018-02-08T18:42:53.094Z,91.27
2018-02-08T18:45:21.565Z,85.70
2018-02-08T18:47:50.103Z,87.67
2018-02-08T18:50:17.764Z,81.17
2018-02-08T18:52:45.528Z,79.37
2018-02-08T18:55:13.117Z,79.77
2018-02-08T18:57:40.749Z,72.50
2018-02-08T19:00:08.274Z,72.63
2018-02-08T19:02:35.806Z,82.70
2018-02-08T19:05:04.453Z,84.33
2018-02-08T19:07:32.215Z,86.80
2018-02-08T19:09:59.979Z,77.80
2018-02-08T19:12:27.846Z,76.13
2018-02-08T19:14:55.506Z,121.47
2018-02-08T19:17:23.214Z,94.20
2018-02-08T19:19:51.550Z,79.23
2018-02-08T19:22:19.209Z,77.93
2018-02-08T19:24:46.917Z,73.67
2018-02-08T19:27:15.351Z,79.70
2018-02-08T19:29:42.930Z,70.53
2018-02-08T19:32:11.966Z,71.70
2018-02-08T19:34:39.514Z,70.40
2018-02-08T19:37:07.839Z,65.47
2018-02-08T19:39:35.378Z,73.10
2018-02-08T19:42:02.934Z,72.97
2018-02-08T19:44:30.558Z,60.70
2018-02-08T19:46:58.158Z,61.30
2018-02-08T19:49:25.673Z,61.93
2018-02-08T19:51:53.607Z,62.97
2018-02-08T19:54:22.338Z,57.47
2018-02-08T19:56:50.865Z,59.55
2018-02-08T19:59:18.587Z,59.23
2018-02-08T20:01:46.106Z,50.20
2018-02-08T20:04:13.710Z,52.47
2018-02-08T20:06:42.158Z,58.47
2018-02-08T20:09:09.865Z,65.40
2018-02-08T20:11:37.425Z,60.43
2018-02-08T20:14:10.752Z,60.58
2018-02-08T20:16:38.274Z,56.77
2018-02-08T20:19:05.801Z,50.57
2018-02-08T20:21:33.338Z,46.50
2018-02-08T20:24:00.858Z,38.37
2018-02-08T20:26:28.855Z,45.20
2018-02-08T20:28:56.606Z,42.55
2018-02-08T20:31:29.666Z,42.43
2018-02-08T20:33:57.542Z,39.30
2018-02-08T20:36:25.294Z,39.60
2018-02-08T20:38:53.926Z,45.50
2018-02-08T20:41:21.638Z,46.22
2018-02-08T20:43:50.158Z,40.50
2018-02-08T20:46:17.706Z,38.37
2018-02-08T20:48:45.246Z,42.93
2018-02-08T20:51:12.786Z,39.77
2018-02-08T20:53:41.346Z,35.27
2018-02-08T20:56:08.878Z,47.30
2018-02-08T20:58:36.430Z,43.77
2018-02-08T21:01:03.973Z,51.60
2018-02-08T21:03:31.885Z,46.73
2018-02-08T21:05:59.798Z,38.40
2018-02-08T21:08:28.302Z,50.70
2018-02-08T21:10:56.071Z,50.47
2018-02-08T21:13:23.774Z,48.33
2018-02-08T21:15:51.321Z,53.43
2018-02-08T21:18:18.878Z,47.97
2018-02-08T21:20:46.498Z,49.47
2018-02-08T21:23:14.070Z,45.30
2018-02-08T21:25:41.803Z,41.70
2018-02-08T21:28:10.126Z,39.63
2018-02-08T21:30:37.690Z,43.43
2018-02-08T21:33:05.255Z,46.80
2018-02-08T21:35:32.818Z,39.50
2018-02-08T21:38:00.390Z,41.70
2018-02-08T21:40:27.951Z,48.40
2018-02-08T21:42:55.526Z,41.07
2018-02-08T21:45:24.006Z,45.87
2018-02-08T21:47:52.547Z,40.50
2018-02-08T21:50:20.250Z,79.53
2018-02-08T21:52:48.794Z,44.70
2018-02-08T21:55:16.371Z,50.87
2018-02-08T21:57:43.947Z,46.00
2018-02-08T22:00:11.510Z,47.20
2018-02-08T22:02:40.146Z,47.83
2018-02-08T22:05:08.584Z,49.70
2018-02-08T22:07:36.504Z,53.27
2018-02-08T22:10:04.267Z,48.00
2018-02-08T22:12:31.973Z,57.90
2018-02-08T22:15:00.511Z,49.40
2018-02-08T22:17:28.046Z,52.40
2018-02-08T22:19:55.835Z,48.90
2018-02-08T22:22:23.497Z,47.43
2018-02-08T22:24:51.261Z,47.57
2018-02-08T22:27:18.793Z,54.17
2018-02-08T22:29:46.358Z,51.50
2018-02-08T22:32:13.926Z,44.50
2018-02-08T22:34:41.496Z,43.27
2018-02-08T22:37:09.067Z,44.80
2018-02-08T22:39:36.633Z,55.80
2018-02-08T22:42:04.604Z,49.00
2018-02-08T22:44:32.289Z,54.33
2018-02-08T22:47:00.662Z,47.67
2018-02-08T22:49:28.325Z,50.90
2018-02-08T22:51:56.052Z,46.13
2018-02-08T22:54:23.762Z,45.67
2018-02-08T22:56:52.147Z,49.40
2018-02-08T22:59:20.618Z,54.40
2018-02-08T23:01:48.898Z,51.93
2018-02-08T23:04:17.432Z,47.40
2018-02-08T23:06:44.953Z,51.67
2018-02-08T23:09:12.522Z,48.23
2018-02-08T23:11:40.100Z,52.63
2018-02-08T23:14:07.667Z,49.10
2018-02-08T23:16:35.474Z,48.90
2018-02-08T23:19:03.196Z,51.40
2018-02-08T23:21:30.962Z,48.07
2018-02-08T23:23:58.702Z,57.17
2018-02-08T23:26:26.429Z,53.47
2018-02-08T23:28:54.129Z,58.40
2018-02-08T23:31:21.690Z,57.73
2018-02-08T23:33:49.268Z,51.73
2018-02-08T23:36:16.838Z,54.93
2018-02-08T23:38:44.418Z,58.20
2018-02-08T23:41:11.990Z,55.07
2018-02-08T23:43:40.470Z,57.93
2018-02-08T23:46:08.838Z,58.53
2018-02-08T23:48:36.571Z,57.40
2018-02-08T23:51:04.233Z,65.93
2018-02-08T23:53:31.894Z,61.37
2018-02-08T23:55:59.481Z,55.97
2018-02-08T23:58:27.034Z,63.33
